createdAt,value
2022-08-05T00:01:27.935Z,99948.75
2022-08-05T00:04:30.370Z,99949.75
2022-08-05T00:08:00.272Z,99964.84
2022-08-05T00:10:53.725Z,99976.50
2022-08-05T00:13:55.239Z,99981.59
2022-08-05T00:16:57.557Z,99977.78
2022-08-05T00:20:02.561Z,99974.88
2022-08-05T00:23:12.473Z,99974.78
2022-08-05T00:26:15.359Z,99975.47
2022-08-05T00:29:18.020Z,99975.28
2022-08-05T00:32:19.697Z,99968.75
2022-08-05T00:35:21.222Z,99963.19
2022-08-05T00:38:34.823Z,99956.69
2022-08-05T00:41:52.217Z,99952.22
2022-08-05T00:44:57.319Z,99954.75
2022-08-05T00:48:05.731Z,99956.53
2022-08-05T00:51:08.744Z,99946.78
2022-08-05T00:54:30.090Z,99948.50
2022-08-05T00:57:38.252Z,99945.44
2022-08-05T01:00:53.382Z,99943.41
2022-08-05T01:03:55.415Z,99940.59
2022-08-05T01:06:56.909Z,99945.09
2022-08-05T01:09:58.809Z,99935.19
2022-08-05T01:13:12.724Z,99908.16
2022-08-05T01:16:26.420Z,99868.72
2022-08-05T01:20:01.275Z,99846.78
2022-08-05T01:23:34.776Z,99855.13
2022-08-05T01:26:39.172Z,99869.78
2022-08-05T01:29:45.581Z,99884.38
2022-08-05T01:32:50.630Z,99881.00
2022-08-05T01:35:57.508Z,99875.56
2022-08-05T01:39:00.149Z,99866.69
2022-08-05T01:42:05.434Z,99852.44
2022-08-05T01:45:08.605Z,99851.25
2022-08-05T01:48:10.958Z,99846.66
2022-08-05T01:51:14.570Z,99830.66
2022-08-05T01:54:17.972Z,99823.28
2022-08-05T01:58:13.191Z,99827.81
2022-08-05T02:00:50.865Z,99821.91
2022-08-05T02:03:53.508Z,99795.72
2022-08-05T02:06:56.843Z,99792.94
2022-08-05T02:10:00.355Z,99790.63
2022-08-05T02:13:16.208Z,99803.44
2022-08-05T02:16:27.608Z,99807.63
2022-08-05T02:19:47.031Z,99808.72
2022-08-05T02:22:58.303Z,99836.97
2022-08-05T02:26:04.920Z,99860.34
2022-08-05T02:29:10.047Z,99861.97
2022-08-05T02:32:30.838Z,99877.22
2022-08-05T02:35:38.158Z,99885.91
2022-08-05T02:38:54.895Z,99884.00
2022-08-05T02:42:01.485Z,99892.84
2022-08-05T02:45:04.319Z,99902.09
2022-08-05T02:48:12.348Z,99900.75
2022-08-05T02:51:15.882Z,99905.47
2022-08-05T02:54:35.632Z,99914.34
2022-08-05T02:58:10.937Z,99928.06
2022-08-05T03:01:02.780Z,99929.56
2022-08-05T03:04:11.982Z,99920.44
2022-08-05T03:07:48.492Z,99897.97
2022-08-05T03:10:42.784Z,99876.63
2022-08-05T03:14:04.278Z,99888.31
2022-08-05T03:17:09.118Z,99895.06
2022-08-05T03:20:11.245Z,99912.69
2022-08-05T03:23:15.438Z,99930.34
2022-08-05T03:26:31.733Z,99960.00
2022-08-05T03:29:45.821Z,99959.41
2022-08-05T03:32:55.567Z,99942.69
2022-08-05T03:35:58.258Z,99914.31
2022-08-05T03:39:06.836Z,99880.50
2022-08-05T03:42:09.422Z,99903.44
2022-08-05T03:45:22.709Z,99983.34
2022-08-05T03:48:25.287Z,99983.91
2022-08-05T03:52:38.248Z,100011.34
2022-08-05T03:56:06.165Z,99995.28
2022-08-05T03:58:36.692Z,100049.19
2022-08-05T04:01:42.785Z,100090.38
2022-08-05T04:04:47.895Z,100070.53
2022-08-05T04:07:51.439Z,100064.34
2022-08-05T04:11:02.251Z,100050.41
2022-08-05T04:14:04.604Z,100051.31
2022-08-05T04:17:08.375Z,100060.84
2022-08-05T04:20:23.368Z,100070.13
2022-08-05T04:24:04.960Z,100080.84
2022-08-05T04:26:48.261Z,100102.31
2022-08-05T04:29:49.884Z,100116.63
2022-08-05T04:32:51.566Z,100130.84
2022-08-05T04:36:10.945Z,100140.34
2022-08-05T04:39:14.697Z,100125.38
2022-08-05T04:42:16.284Z,100100.28
2022-08-05T04:45:23.037Z,100132.38
2022-08-05T04:48:32.861Z,100147.50
2022-08-05T04:51:34.638Z,100154.16
2022-08-05T04:54:36.296Z,100157.38
2022-08-05T04:57:37.789Z,100149.47
2022-08-05T05:00:40.348Z,100149.09
2022-08-05T05:03:42.788Z,100153.41
2022-08-05T05:06:49.402Z,100159.63
2022-08-05T05:09:58.870Z,100152.66
2022-08-05T05:13:04.339Z,100152.97
2022-08-05T05:16:07.150Z,100148.41
2022-08-05T05:19:19.257Z,100164.22
2022-08-05T05:22:26.585Z,100168.88
2022-08-05T05:25:32.485Z,100188.66
2022-08-05T05:28:37.433Z,100193.81
2022-08-05T05:31:46.462Z,100236.72
2022-08-05T05:34:48.200Z,100228.84
2022-08-05T05:37:59.954Z,100194.97
2022-08-05T05:41:02.940Z,100180.38
2022-08-05T05:44:04.721Z,100172.16
2022-08-05T05:47:30.516Z,100176.69
2022-08-05T05:50:47.577Z,100160.84
2022-08-05T05:53:57.464Z,100150.66
2022-08-05T05:57:00.882Z,100146.63
2022-08-05T06:00:02.623Z,100143.41
2022-08-05T06:03:39.855Z,100159.94
2022-08-05T06:06:27.975Z,100153.41
2022-08-05T06:10:01.556Z,100149.91
2022-08-05T06:12:54.464Z,100144.69
2022-08-05T06:16:30.953Z,100132.97
2022-08-05T06:19:33.902Z,100127.38
2022-08-05T06:22:36.634Z,100122.13
2022-08-05T06:26:12.565Z,100095.22
2022-08-05T06:28:59.711Z,100101.13
2022-08-05T06:32:05.594Z,100092.81
2022-08-05T06:36:03.731Z,100096.41
2022-08-05T06:38:47.221Z,100105.13
2022-08-05T06:41:49.395Z,100096.59
2022-08-05T06:44:50.861Z,100097.94
2022-08-05T06:48:44.433Z,100090.81
2022-08-05T06:51:22.702Z,100104.19
2022-08-05T06:54:29.694Z,100103.09
2022-08-05T06:57:57.652Z,100112.09
2022-08-05T07:00:52.904Z,100121.59
2022-08-05T07:03:54.807Z,100145.72
2022-08-05T07:06:56.508Z,100151.47
2022-08-05T07:09:59.671Z,100164.59
2022-08-05T07:13:39.455Z,100181.69
2022-08-05T07:17:58.678Z,100189.88
2022-08-05T07:23:34.577Z,100206.97
2022-08-05T07:26:42.479Z,100214.38
2022-08-05T07:30:29.880Z,100210.88
2022-08-05T07:33:16.467Z,100219.34
2022-08-05T07:36:20.032Z,100227.50
2022-08-05T07:39:24.735Z,100225.34
2022-08-05T07:42:44.044Z,100240.38
2022-08-05T07:45:57.504Z,100221.28
2022-08-05T07:49:05.860Z,100224.25
2022-08-05T07:52:07.790Z,100227.94
2022-08-05T07:55:15.783Z,100205.72
2022-08-05T07:58:57.516Z,100190.28
2022-08-05T08:01:57.612Z,100190.91
2022-08-05T08:05:00.475Z,100187.53
2022-08-05T08:08:02.930Z,100194.91
2022-08-05T08:11:04.509Z,100189.59
2022-08-05T08:14:10.504Z,100202.03
2022-08-05T08:17:21.478Z,100204.97
2022-08-05T08:20:43.839Z,100195.69
2022-08-05T08:24:01.456Z,100205.94
2022-08-05T08:27:07.331Z,100240.91
2022-08-05T08:30:27.602Z,100257.97
2022-08-05T08:33:37.508Z,100252.56
2022-08-05T08:36:47.603Z,100230.94
2022-08-05T08:39:56.427Z,100222.13
2022-08-05T08:45:16.088Z,100213.81
2022-08-05T08:46:21.452Z,100203.25
2022-08-05T08:50:23.416Z,100218.78
2022-08-05T08:52:53.209Z,100221.91
2022-08-05T08:56:03.691Z,100222.19
2022-08-05T08:59:10.158Z,100225.66
2022-08-05T09:02:22.046Z,100214.41
2022-08-05T09:05:38.618Z,100192.34
2022-08-05T09:08:49.732Z,100167.66
2022-08-05T09:11:55.317Z,100129.38
2022-08-05T09:15:05.816Z,100177.53
2022-08-05T09:18:09.442Z,100149.50
2022-08-05T09:21:11.632Z,100173.47
2022-08-05T09:24:22.641Z,100167.50
2022-08-05T09:28:04.272Z,100177.53
2022-08-05T09:32:38.640Z,100183.53
2022-08-05T09:34:26.256Z,100183.09
2022-08-05T09:38:13.017Z,100184.31
2022-08-05T09:40:53.860Z,100163.00
2022-08-05T09:43:55.777Z,100162.56
2022-08-05T09:47:15.798Z,100170.72
2022-08-05T09:50:37.603Z,100195.09
2022-08-05T09:53:59.301Z,100208.56
2022-08-05T09:57:02.076Z,100222.22
2022-08-05T10:00:20.619Z,100223.38
2022-08-05T10:03:56.589Z,100219.53
2022-08-05T10:06:59.621Z,100216.69
2022-08-05T10:10:14.021Z,100207.94
2022-08-05T10:13:48.050Z,100215.47
2022-08-05T10:16:52.864Z,100201.34
2022-08-05T10:20:04.338Z,100203.28
2022-08-05T10:23:34.277Z,100205.91
2022-08-05T10:26:51.922Z,100209.06
2022-08-05T10:30:41.567Z,100219.44
2022-08-05T10:33:15.668Z,100225.63
2022-08-05T10:36:17.230Z,100227.28
2022-08-05T10:39:58.959Z,100227.72
2022-08-05T10:42:56.329Z,100247.63
2022-08-05T10:46:07.189Z,100240.97
2022-08-05T10:49:10.422Z,100258.69
2022-08-05T10:52:49.504Z,100251.03
2022-08-05T10:56:43.487Z,100242.28
2022-08-05T11:00:03.391Z,100236.66
2022-08-05T11:03:23.104Z,100236.06
2022-08-05T11:06:30.794Z,100219.81
2022-08-05T11:09:47.254Z,100215.03
2022-08-05T11:12:54.255Z,100199.88
2022-08-05T11:16:23.292Z,100223.25
2022-08-05T11:20:17.546Z,100216.81
2022-08-05T11:23:25.393Z,100249.72
2022-08-05T11:26:35.491Z,100252.38
2022-08-05T11:29:43.199Z,100258.84
2022-08-05T11:32:44.676Z,100255.06
2022-08-05T11:36:04.419Z,100260.34
2022-08-05T11:39:11.967Z,100260.78
2022-08-05T11:42:18.348Z,100280.00
2022-08-05T11:45:26.891Z,100282.19
2022-08-05T11:48:41.975Z,100266.38
2022-08-05T11:51:49.893Z,100274.09
2022-08-05T11:54:54.784Z,100286.59
2022-08-05T11:58:10.615Z,100291.19
2022-08-05T12:01:19.268Z,100270.13
2022-08-05T12:04:21.715Z,100280.59
2022-08-05T12:08:07.244Z,100277.44
2022-08-05T12:10:48.809Z,100287.13
2022-08-05T12:14:04.039Z,100278.38
2022-08-05T12:18:03.685Z,100280.28
2022-08-05T12:20:38.561Z,100276.88
2022-08-05T12:23:43.282Z,100289.28
2022-08-05T12:26:50.589Z,100284.56
2022-08-05T12:30:05.519Z,100282.75
2022-08-05T12:33:27.205Z,100285.59
2022-08-05T12:36:29.021Z,100283.00
2022-08-05T12:39:37.359Z,100291.06
2022-08-05T12:42:40.630Z,100295.22
2022-08-05T12:45:52.843Z,100296.91
2022-08-05T12:49:13.691Z,100307.84
2022-08-05T12:52:24.011Z,100303.59
2022-08-05T12:55:32.795Z,100311.00
2022-08-05T12:58:38.873Z,100316.84
2022-08-05T13:02:07.003Z,100310.06
2022-08-05T13:05:12.705Z,100313.63
2022-08-05T13:08:18.419Z,100326.78
2022-08-05T13:12:01.920Z,100327.16
2022-08-05T13:14:45.381Z,100325.53
2022-08-05T13:18:00.704Z,100331.00
2022-08-05T13:21:02.592Z,100321.06
2022-08-05T13:24:08.889Z,100321.31
2022-08-05T13:27:11.180Z,100320.72
2022-08-05T13:30:35.364Z,100317.69
2022-08-05T13:34:24.353Z,100316.63
2022-08-05T13:37:00.395Z,100317.56
2022-08-05T13:40:13.918Z,100312.50
2022-08-05T13:43:22.127Z,100303.78
2022-08-05T13:47:01.960Z,100309.00
2022-08-05T13:49:46.562Z,100299.34
2022-08-05T13:52:50.370Z,100288.78
2022-08-05T13:55:58.873Z,100286.97
2022-08-05T13:59:06.061Z,100289.06
2022-08-05T14:02:20.874Z,100283.56
2022-08-05T14:05:48.144Z,100276.88
2022-08-05T14:08:50.072Z,100275.63
2022-08-05T14:12:04.650Z,100286.53
2022-08-05T14:16:05.346Z,100281.97
2022-08-05T14:18:38.041Z,100284.16
2022-08-05T14:22:08.903Z,100278.41
2022-08-05T14:25:21.635Z,100275.94
2022-08-05T14:28:26.740Z,100281.84
2022-08-05T14:31:54.308Z,100282.03
2022-08-05T14:34:50.336Z,100274.78
2022-08-05T14:37:55.417Z,100268.41
2022-08-05T14:40:57.278Z,100277.34
2022-08-05T14:44:09.849Z,100262.28
2022-08-05T14:47:58.438Z,100275.72
2022-08-05T14:50:41.871Z,100270.13
2022-08-05T14:53:44.856Z,100262.63
2022-08-05T14:56:47.146Z,100269.13
2022-08-05T14:59:48.769Z,100264.56
2022-08-05T15:02:50.682Z,100271.72
2022-08-05T15:06:13.164Z,100272.38
2022-08-05T15:09:52.463Z,100294.22
2022-08-05T15:13:00.146Z,100293.16
2022-08-05T15:16:04.090Z,100299.88
2022-08-05T15:19:05.625Z,100320.72
2022-08-05T15:22:16.029Z,100327.47
2022-08-05T15:25:23.239Z,100323.19
2022-08-05T15:28:39.529Z,100325.38
2022-08-05T15:31:49.688Z,100328.13
2022-08-05T15:34:53.963Z,100332.00
2022-08-05T15:38:32.589Z,100340.13
2022-08-05T15:41:22.821Z,100334.91
2022-08-05T15:44:27.587Z,100348.34
2022-08-05T15:47:29.343Z,100362.53
2022-08-05T15:50:32.591Z,100363.22
2022-08-05T15:53:38.314Z,100367.34
2022-08-05T15:56:52.303Z,100371.97
2022-08-05T15:59:57.842Z,100374.97
2022-08-05T16:02:59.815Z,100372.66
2022-08-05T16:06:01.345Z,100376.59
2022-08-05T16:09:04.326Z,100373.41
2022-08-05T16:12:06.488Z,100389.72
2022-08-05T16:15:09.483Z,100380.66
2022-08-05T16:18:12.289Z,100390.06
2022-08-05T16:21:15.921Z,100389.06
2022-08-05T16:24:40.975Z,100389.44
2022-08-05T16:27:59.644Z,100394.94
2022-08-05T16:31:01.327Z,100405.47
2022-08-05T16:34:02.789Z,100416.00
2022-08-05T16:38:03.269Z,100408.09
2022-08-05T16:40:29.582Z,100410.06
2022-08-05T16:43:34.693Z,100413.91
2022-08-05T16:46:36.768Z,100413.94
2022-08-05T16:49:43.038Z,100413.84
2022-08-05T16:52:46.144Z,100414.69
2022-08-05T16:55:47.693Z,100442.31
2022-08-05T16:58:49.390Z,100432.09
2022-08-05T17:01:54.541Z,100420.63
2022-08-05T17:04:57.311Z,100426.97
2022-08-05T17:07:58.748Z,100433.78
2022-08-05T17:11:00.426Z,100429.72
2022-08-05T17:14:06.099Z,100430.34
2022-08-05T17:17:14.453Z,100431.25
2022-08-05T17:20:16.921Z,100444.44
2022-08-05T17:24:03.623Z,100438.19
2022-08-05T17:26:41.109Z,100433.63
2022-08-05T17:29:42.670Z,100437.03
2022-08-05T17:32:44.459Z,100444.16
2022-08-05T17:36:08.683Z,100429.34
2022-08-05T17:39:24.556Z,100436.72
2022-08-05T17:42:32.838Z,100443.72
2022-08-05T17:45:38.615Z,100439.94
2022-08-05T17:48:40.323Z,100443.84
2022-08-05T17:51:46.575Z,100444.94
2022-08-05T17:54:52.404Z,100444.56
2022-08-05T17:57:55.086Z,100444.34
2022-08-05T18:00:57.028Z,100453.94
2022-08-05T18:04:04.567Z,100454.94
2022-08-05T18:07:07.533Z,100455.31
2022-08-05T18:10:21.050Z,100458.63
2022-08-05T18:13:23.008Z,100467.59
2022-08-05T18:16:27.378Z,100474.97
2022-08-05T18:19:28.967Z,100484.41
2022-08-05T18:22:36.336Z,100482.69
2022-08-05T18:25:57.828Z,100494.66
2022-08-05T18:29:01.178Z,100495.72
2022-08-05T18:32:02.922Z,100505.91
2022-08-05T18:35:05.106Z,100504.06
2022-08-05T18:38:07.511Z,100508.25
2022-08-05T18:41:55.078Z,100516.47
2022-08-05T18:44:34.714Z,100514.47
2022-08-05T18:47:37.973Z,100518.56
2022-08-05T18:51:01.792Z,100532.78
2022-08-05T18:54:19.802Z,100548.81
2022-08-05T18:57:25.558Z,100545.63
2022-08-05T19:00:29.347Z,100546.41
2022-08-05T19:03:53.036Z,100549.75
2022-08-05T19:06:53.647Z,100552.41
2022-08-05T19:09:56.052Z,100570.88
2022-08-05T19:12:57.697Z,100575.03
2022-08-05T19:16:03.770Z,100580.28
2022-08-05T19:19:05.444Z,100586.41
2022-08-05T19:22:06.999Z,100607.06
2022-08-05T19:25:10.767Z,100606.09
2022-08-05T19:28:32.805Z,100616.41
2022-08-05T19:31:34.531Z,100623.88
2022-08-05T19:34:54.672Z,100625.59
2022-08-05T19:38:06.152Z,100623.31
2022-08-05T19:41:10.426Z,100630.69
2022-08-05T19:44:12.966Z,100639.81
2022-08-05T19:47:16.416Z,100645.44
2022-08-05T19:50:19.924Z,100647.63
2022-08-05T19:54:04.074Z,100655.84
2022-08-05T19:56:43.348Z,100650.66
2022-08-05T19:59:55.394Z,100650.03
2022-08-05T20:03:05.277Z,100652.78
2022-08-05T20:06:14.823Z,100661.28
2022-08-05T20:09:17.573Z,100670.75
2022-08-05T20:12:19.429Z,100659.78
2022-08-05T20:15:23.211Z,100669.72
2022-08-05T20:18:42.854Z,100676.13
2022-08-05T20:21:46.640Z,100682.59
2022-08-05T20:24:48.111Z,100680.75
2022-08-05T20:27:50.570Z,100687.06
2022-08-05T20:30:51.999Z,100684.47
2022-08-05T20:33:54.565Z,100685.69
2022-08-05T20:36:57.233Z,100696.47
2022-08-05T20:39:58.966Z,100697.19
2022-08-05T20:43:01.556Z,100697.34
2022-08-05T20:46:03.188Z,100694.59
2022-08-05T20:49:06.267Z,100711.81
2022-08-05T20:52:10.702Z,100732.34
2022-08-05T20:55:54.929Z,100740.72
2022-08-05T20:58:36.972Z,100743.94
2022-08-05T21:01:39.149Z,100737.25
2022-08-05T21:04:40.729Z,100728.56
2022-08-05T21:07:45.673Z,100735.34
2022-08-05T21:10:55.017Z,100740.00
2022-08-05T21:14:00.781Z,100750.66
2022-08-05T21:17:05.240Z,100746.88
2022-08-05T21:20:10.238Z,100744.09
2022-08-05T21:23:12.802Z,100748.72
2022-08-05T21:26:15.694Z,100761.16
2022-08-05T21:29:17.200Z,100769.03
2022-08-05T21:32:20.023Z,100768.88
2022-08-05T21:35:29.432Z,100778.22
2022-08-05T21:38:32.137Z,100773.09
2022-08-05T21:41:34.346Z,100778.59
2022-08-05T21:44:37.136Z,100767.91
2022-08-05T21:47:56.594Z,100771.06
2022-08-05T21:50:59.235Z,100778.91
2022-08-05T21:54:03.813Z,100780.91
2022-08-05T21:57:29.503Z,100777.28
2022-08-05T22:00:28.071Z,100794.00
2022-08-05T22:03:48.764Z,100781.19
2022-08-05T22:06:52.950Z,100789.19
2022-08-05T22:09:54.390Z,100790.69
2022-08-05T22:14:05.203Z,100791.31
2022-08-05T22:16:41.670Z,100799.91
2022-08-05T22:20:01.836Z,100802.09
2022-08-05T22:23:23.792Z,100802.41
2022-08-05T22:26:49.841Z,100806.72
2022-08-05T22:29:54.242Z,100817.06
2022-08-05T22:32:55.925Z,100819.09
2022-08-05T22:35:59.724Z,100815.94
2022-08-05T22:39:04.364Z,100816.25
2022-08-05T22:42:15.380Z,100817.16
2022-08-05T22:45:27.037Z,100820.94
2022-08-05T22:48:32.261Z,100828.66
2022-08-05T22:52:07.036Z,100826.47
2022-08-05T22:54:55.737Z,100832.47
2022-08-05T22:57:57.505Z,100828.75
2022-08-05T23:00:59.636Z,100835.00
2022-08-05T23:04:01.116Z,100838.06
2022-08-05T23:07:03.658Z,100851.06
2022-08-05T23:10:06.018Z,100846.72
2022-08-05T23:13:09.389Z,100849.28
2022-08-05T23:16:10.850Z,100856.41
2022-08-05T23:19:12.244Z,100858.31
2022-08-05T23:22:28.184Z,100872.03
2022-08-05T23:25:51.179Z,100859.31
2022-08-05T23:28:51.173Z,100858.00
2022-08-05T23:31:52.614Z,100871.19
2022-08-05T23:34:54.101Z,100872.25
2022-08-05T23:37:55.568Z,100872.25
2022-08-05T23:41:00.384Z,100870.22
2022-08-05T23:44:04.855Z,100872.44
2022-08-05T23:47:15.133Z,100878.81
2022-08-05T23:50:20.203Z,100884.31
2022-08-05T23:53:23.032Z,100887.34
2022-08-05T23:56:27.537Z,100893.47
